Flight Briefing for CMB858

Departure Arrival
Diego Garcia (FJDG)
Click to view FAA NOTAMS
Bahrain International Airport (OBBI)
Click to view FAA NOTAMS
Departure Time Arrival Time
N/A N/A
Aircraft Distance
B757-200SF 2375nm
Departure METAR Arrival METAR
FJDG 252355Z 00000KT 9999 FEW020 27/25 A2981 RMK SLP091 8/100 T02720251 10285 20272 56003 OBBI 252330Z 05010KT 8000 NSC 23/19 Q1008 NOSIG
Suggested Route
BUMMR L516 KITAL P570 ITURA M762 VAXAS M762 MIVEK P574 RUKOR N571 TUDIS P699 IMGUX ULBEK Y001 LABOV EMISA B457 DENVO DENVO1


View recent IFR Routes data
Notes
USTRANSCOM CONTRACT FLIGHT

Charts and Procedures

Charts for FJDG
No chart available
Charts for OBBI
No chart available

Windy.com Weather Map